createdAt,value
2023-04-11T00:00:59.344Z,12.48
2023-04-11T00:05:51.055Z,12.50
2023-04-11T00:10:44.282Z,12.53
2023-04-11T00:15:39.218Z,12.96
2023-04-11T00:20:30.895Z,12.89
2023-04-11T00:25:22.593Z,12.96
2023-04-11T00:30:14.403Z,13.13
2023-04-11T00:35:08.515Z,13.02
2023-04-11T00:40:00.171Z,12.89
2023-04-11T00:44:51.840Z,12.90
2023-04-11T00:49:43.919Z,12.85
2023-04-11T00:54:35.762Z,12.82
2023-04-11T00:59:30.310Z,12.77
2023-04-11T01:04:22.089Z,12.71
2023-04-11T01:09:14.228Z,12.66
2023-04-11T01:14:06.620Z,12.59
2023-04-11T01:18:58.332Z,12.52
2023-04-11T01:29:06.752Z,12.39
2023-04-11T01:45:13.008Z,12.32
2023-04-11T01:50:06.877Z,12.30
2023-04-11T01:54:58.584Z,12.28
2023-04-11T01:59:50.412Z,12.36
2023-04-11T02:04:42.112Z,12.58
2023-04-11T02:09:33.770Z,12.85
2023-04-11T02:14:25.515Z,12.96
2023-04-11T02:19:17.241Z,13.17
2023-04-11T02:24:08.930Z,13.30
2023-04-11T02:29:00.629Z,13.44
2023-04-11T02:33:52.287Z,13.51
2023-04-11T02:38:44.000Z,13.55
2023-04-11T02:43:35.963Z,13.61
2023-04-11T02:48:27.673Z,13.74
2023-04-11T02:53:19.353Z,13.72
2023-04-11T02:58:11.028Z,13.71
2023-04-11T03:03:03.084Z,13.62
2023-04-11T03:07:57.578Z,13.64
2023-04-11T03:12:49.252Z,13.54
2023-04-11T03:17:40.953Z,13.63
2023-04-11T03:22:32.677Z,13.76
2023-04-11T03:27:24.388Z,13.68
2023-04-11T03:32:16.098Z,13.46
2023-04-11T03:37:07.881Z,13.11
2023-04-11T03:41:59.675Z,12.82
2023-04-11T03:46:51.369Z,12.68
2023-04-11T03:51:43.278Z,12.58
2023-04-11T03:56:34.972Z,12.29
2023-04-11T04:01:28.933Z,12.10
2023-04-11T04:06:21.397Z,11.73
2023-04-11T04:11:13.074Z,11.51
2023-04-11T04:16:05.168Z,11.52
2023-04-11T04:20:56.927Z,11.31
2023-04-11T04:25:51.257Z,11.17
2023-04-11T04:30:42.924Z,11.26
2023-04-11T04:35:34.638Z,11.17
2023-04-11T04:40:27.317Z,11.20
2023-04-11T04:45:19.099Z,11.13
2023-04-11T04:50:11.083Z,11.07
2023-04-11T04:55:03.813Z,10.93
2023-04-11T04:59:57.545Z,10.80
2023-04-11T05:04:50.400Z,10.77
2023-04-11T05:09:42.431Z,10.73
2023-04-11T05:14:34.303Z,10.70
2023-04-11T05:19:26.103Z,10.59
2023-04-11T05:24:17.778Z,10.63
2023-04-11T05:29:11.260Z,10.57
2023-04-11T05:34:03.340Z,10.54
2023-04-11T05:38:55.306Z,10.54
2023-04-11T05:43:50.832Z,10.55
2023-04-11T05:53:50.504Z,10.61
2023-04-11T05:58:45.730Z,10.57
2023-04-11T06:09:00.682Z,10.61
2023-04-11T06:13:52.338Z,10.56
2023-04-11T06:23:50.058Z,10.66
2023-04-11T06:28:42.771Z,10.62
2023-04-11T06:33:35.206Z,10.64
2023-04-11T06:38:26.938Z,10.67
2023-04-11T06:43:18.734Z,10.66
2023-04-11T06:48:19.027Z,10.74
2023-04-11T06:53:18.361Z,10.78
2023-04-11T07:03:23.690Z,10.19
2023-04-11T07:08:16.045Z,9.78
2023-04-11T07:13:08.175Z,9.61
2023-04-11T07:18:00.649Z,9.36
2023-04-11T07:23:00.338Z,9.38
2023-04-11T07:27:53.413Z,9.33
2023-04-11T07:32:46.335Z,9.27
2023-04-11T07:37:38.366Z,9.26
2023-04-11T07:42:30.179Z,9.35
2023-04-11T07:47:22.037Z,9.20
2023-04-11T07:52:15.361Z,9.19
2023-04-11T07:57:07.598Z,9.38
2023-04-11T08:02:01.718Z,9.52
2023-04-11T08:07:03.191Z,9.60
2023-04-11T08:11:58.531Z,9.69
2023-04-11T08:16:52.813Z,9.79
2023-04-11T08:21:44.838Z,9.92
2023-04-11T08:26:36.731Z,10.11
2023-04-11T08:31:28.792Z,10.21
2023-04-11T08:36:22.450Z,10.20
2023-04-11T08:46:20.572Z,10.36
2023-04-11T08:51:14.629Z,10.60
2023-04-11T09:01:32.797Z,10.92
2023-04-11T09:11:37.958Z,11.18
2023-04-11T09:16:29.833Z,11.49
2023-04-11T09:21:22.167Z,11.79
2023-04-11T09:26:29.859Z,12.34
2023-04-11T09:31:40.666Z,12.58
2023-04-11T09:36:32.461Z,12.44
2023-04-11T09:41:36.376Z,12.52
2023-04-11T09:46:30.977Z,12.61
2023-04-11T09:51:35.684Z,12.87
2023-04-11T09:56:31.712Z,13.08
2023-04-11T10:01:24.786Z,13.28
2023-04-11T10:06:43.591Z,13.21
2023-04-11T10:11:40.624Z,13.11
2023-04-11T10:21:42.850Z,13.34
2023-04-11T10:32:21.513Z,13.40
2023-04-11T10:37:16.539Z,13.22
2023-04-11T10:42:32.076Z,13.52
2023-04-11T10:47:26.498Z,13.09
2023-04-11T10:52:25.035Z,12.96
2023-04-11T10:57:20.387Z,12.88
2023-04-11T11:07:24.476Z,12.89
2023-04-11T11:12:17.719Z,12.58
2023-04-11T11:17:13.357Z,12.34
2023-04-11T11:27:25.402Z,12.01
2023-04-11T11:32:30.381Z,12.05
2023-04-11T11:37:31.539Z,12.20
2023-04-11T11:47:45.358Z,12.30
2023-04-11T11:57:54.184Z,12.27
2023-04-11T12:02:47.353Z,12.00
2023-04-11T12:12:53.684Z,11.97
2023-04-11T12:17:56.675Z,12.10
2023-04-11T12:22:48.381Z,12.16
2023-04-11T12:32:51.723Z,12.44
2023-04-11T12:37:54.461Z,12.23
2023-04-11T12:42:56.322Z,12.30
2023-04-11T12:47:49.394Z,12.47
2023-04-11T12:52:43.842Z,12.67
2023-04-11T12:57:38.613Z,12.79
2023-04-11T13:07:44.315Z,12.90
2023-04-11T13:12:41.538Z,13.10
2023-04-11T13:17:35.732Z,13.40
2023-04-11T13:27:35.217Z,13.43
2023-04-11T13:32:32.356Z,13.54
2023-04-11T13:37:30.790Z,13.75
2023-04-11T13:42:23.024Z,14.06
2023-04-11T13:47:14.903Z,13.80
2023-04-11T13:52:07.258Z,13.84
2023-04-11T14:02:08.535Z,13.91
2023-04-11T14:07:01.062Z,13.87
2023-04-11T14:12:01.253Z,13.91
2023-04-11T14:21:59.779Z,14.03
2023-04-11T14:42:17.143Z,13.73
2023-04-11T14:47:09.052Z,13.73
2023-04-11T14:52:01.414Z,13.94
2023-04-11T15:02:01.200Z,14.41
2023-04-11T15:06:54.448Z,14.23
2023-04-11T15:11:51.210Z,14.42
2023-04-11T15:16:42.899Z,14.08
2023-04-11T15:21:34.645Z,14.11
2023-04-11T15:26:27.180Z,14.14
2023-04-11T15:31:27.637Z,14.19
2023-04-11T15:36:19.683Z,14.09
2023-04-11T15:41:13.092Z,14.11
2023-04-11T15:46:06.720Z,14.17
2023-04-11T15:51:00.138Z,13.95
2023-04-11T15:55:53.213Z,13.83
2023-04-11T16:05:53.428Z,13.59
2023-04-11T16:10:45.252Z,13.35
2023-04-11T16:15:37.034Z,13.21
2023-04-11T16:20:28.971Z,13.21
2023-04-11T16:25:21.800Z,13.15
2023-04-11T16:30:14.297Z,13.16
2023-04-11T16:35:07.045Z,13.06
2023-04-11T16:39:58.888Z,13.04
2023-04-11T16:44:50.769Z,13.02
2023-04-11T16:49:44.360Z,12.86
2023-04-11T16:59:46.454Z,12.71
2023-04-11T17:04:39.568Z,12.71
2023-04-11T17:09:36.106Z,12.60
2023-04-11T17:14:29.165Z,12.49
2023-04-11T17:19:20.985Z,12.41
2023-04-11T17:24:13.008Z,12.24
2023-04-11T17:29:06.508Z,12.14
2023-04-11T17:33:58.632Z,12.06
2023-04-11T17:38:54.132Z,12.07
2023-04-11T17:43:48.083Z,12.00
2023-04-11T17:48:39.859Z,11.77
2023-04-11T17:53:31.772Z,11.59
2023-04-11T17:58:23.747Z,11.40
2023-04-11T18:03:17.132Z,11.37
2023-04-11T18:08:09.780Z,11.22
2023-04-11T18:13:05.261Z,11.00
2023-04-11T18:17:57.389Z,10.95
2023-04-11T18:22:54.530Z,10.84
2023-04-11T18:27:47.541Z,10.73
2023-04-11T18:32:44.611Z,10.69
2023-04-11T18:37:40.445Z,10.62
2023-04-11T18:42:32.428Z,10.51
2023-04-11T18:47:24.329Z,10.48
2023-04-11T18:52:16.661Z,10.41
2023-04-11T18:57:10.287Z,10.36
2023-04-11T19:07:10.477Z,10.30
2023-04-11T19:12:02.158Z,10.20
2023-04-11T19:16:53.933Z,10.11
2023-04-11T19:21:46.586Z,10.08
2023-04-11T19:26:38.438Z,10.14
2023-04-11T19:31:34.137Z,10.06
2023-04-11T19:36:26.569Z,9.99
2023-04-11T19:41:19.549Z,9.94
2023-04-11T19:46:12.926Z,9.94
2023-04-11T19:51:04.981Z,9.97
2023-04-11T19:55:56.842Z,9.99
2023-04-11T20:00:48.661Z,10.02
2023-04-11T20:05:44.282Z,10.12
2023-04-11T20:10:37.325Z,10.07
2023-04-11T20:15:31.336Z,10.00
2023-04-11T20:20:27.730Z,9.97
2023-04-11T20:25:19.564Z,9.93
2023-04-11T20:30:12.457Z,9.94
2023-04-11T20:35:05.024Z,9.98
2023-04-11T20:39:58.350Z,9.95
2023-04-11T20:44:51.051Z,10.03
2023-04-11T20:49:45.497Z,9.98
2023-04-11T20:54:37.300Z,10.02
2023-04-11T20:59:29.787Z,10.05
2023-04-11T21:04:21.920Z,10.08
2023-04-11T21:09:13.917Z,10.12
2023-04-11T21:14:05.878Z,10.16
2023-04-11T21:18:57.593Z,10.18
2023-04-11T21:23:49.299Z,10.10
2023-04-11T21:28:40.964Z,10.11
2023-04-11T21:33:32.684Z,10.02
2023-04-11T21:38:24.529Z,10.04
2023-04-11T21:43:16.287Z,9.93
2023-04-11T21:48:08.185Z,9.94
2023-04-11T21:52:59.957Z,9.86
2023-04-11T21:57:51.656Z,9.83
2023-04-11T22:13:00.575Z,9.65
2023-04-11T22:17:56.170Z,9.62
2023-04-11T22:22:48.006Z,9.57
2023-04-11T22:27:39.752Z,9.45
2023-04-11T22:32:31.591Z,9.43
2023-04-11T22:37:23.347Z,9.38
2023-04-11T22:42:15.188Z,9.27
2023-04-11T22:52:24.050Z,9.09
2023-04-11T22:57:16.135Z,8.99
2023-04-11T23:12:36.402Z,8.95
2023-04-11T23:22:35.344Z,8.96
2023-04-11T23:27:27.745Z,8.91
